createdAt,value
2022-11-21T00:03:11.272Z,58.99
2022-11-21T00:08:14.318Z,58.89
2022-11-21T00:13:18.481Z,58.42
2022-11-21T00:18:20.323Z,58.60
2022-11-21T00:23:22.105Z,58.98
2022-11-21T00:28:25.311Z,58.29
2022-11-21T00:33:27.001Z,58.68
2022-11-21T00:38:28.740Z,59.45
2022-11-21T00:43:31.783Z,59.54
2022-11-21T00:48:33.540Z,59.93
2022-11-21T00:53:35.276Z,60.73
2022-11-21T00:58:38.391Z,59.54
2022-11-21T01:03:40.198Z,58.60
2022-11-21T01:08:43.304Z,58.82
2022-11-21T01:13:46.937Z,60.03
2022-11-21T01:18:49.029Z,59.82
2022-11-21T01:23:50.868Z,59.76
2022-11-21T01:28:53.983Z,58.91
2022-11-21T01:33:58.335Z,58.87
2022-11-21T01:39:01.156Z,58.60
2022-11-21T01:44:10.701Z,58.70
2022-11-21T01:49:13.768Z,58.57
2022-11-21T01:54:17.850Z,58.78
2022-11-21T01:59:22.692Z,59.31
2022-11-21T02:04:25.523Z,59.92
2022-11-21T02:09:27.604Z,60.47
2022-11-21T02:14:30.711Z,59.37
2022-11-21T02:19:35.406Z,59.89
2022-11-21T02:24:39.804Z,60.34
2022-11-21T02:29:42.959Z,60.27
2022-11-21T02:34:44.689Z,59.94
2022-11-21T02:39:46.425Z,60.12
2022-11-21T02:44:53.770Z,60.69
2022-11-21T02:49:58.098Z,60.72
2022-11-21T02:54:59.849Z,60.15
2022-11-21T03:00:03.575Z,59.79
2022-11-21T03:05:06.988Z,59.58
2022-11-21T03:10:09.347Z,59.36
2022-11-21T03:15:13.297Z,59.52
2022-11-21T03:20:15.486Z,59.15
2022-11-21T03:25:17.831Z,59.56
2022-11-21T03:30:21.232Z,59.86
2022-11-21T03:35:23.052Z,58.85
2022-11-21T03:40:24.869Z,58.57
2022-11-21T03:45:28.440Z,58.44
2022-11-21T03:50:30.297Z,59.05
2022-11-21T03:55:32.033Z,59.47
2022-11-21T04:00:35.134Z,59.13
2022-11-21T04:05:36.891Z,60.03
2022-11-21T04:10:38.731Z,60.25
2022-11-21T04:15:42.458Z,61.15
2022-11-21T04:20:44.367Z,59.75
2022-11-21T04:25:46.136Z,60.25
2022-11-21T04:30:49.285Z,60.05
2022-11-21T04:35:51.066Z,59.30
2022-11-21T04:40:52.836Z,59.86
2022-11-21T04:45:55.924Z,60.44
2022-11-21T04:50:57.987Z,59.35
2022-11-21T04:56:00.206Z,60.14
2022-11-21T05:01:07.819Z,59.27
2022-11-21T05:06:09.671Z,58.94
2022-11-21T05:11:30.303Z,58.88
2022-11-21T05:16:33.849Z,59.10
2022-11-21T05:21:35.677Z,57.93
2022-11-21T05:26:38.107Z,57.55
2022-11-21T05:31:41.366Z,57.19
2022-11-21T05:36:43.179Z,57.13
2022-11-21T05:41:44.925Z,57.18
2022-11-21T05:46:47.990Z,57.06
2022-11-21T05:51:49.748Z,57.37
2022-11-21T05:56:51.498Z,57.92
2022-11-21T06:02:13.461Z,58.77
2022-11-21T06:07:15.240Z,59.64
2022-11-21T06:12:20.272Z,59.77
2022-11-21T06:17:25.957Z,59.80
2022-11-21T06:22:27.678Z,60.27
2022-11-21T06:27:29.366Z,60.23
2022-11-21T06:32:36.064Z,60.73
2022-11-21T06:37:37.765Z,60.69
2022-11-21T06:42:39.487Z,60.67
2022-11-21T06:47:42.903Z,59.50
2022-11-21T06:52:44.641Z,58.73
2022-11-21T06:57:46.382Z,58.47
2022-11-21T07:02:49.507Z,59.35
2022-11-21T07:07:51.242Z,59.83
2022-11-21T07:13:12.754Z,59.46
2022-11-21T07:18:15.915Z,59.53
2022-11-21T07:23:17.657Z,60.22
2022-11-21T07:28:19.455Z,60.06
2022-11-21T07:33:22.609Z,60.32
2022-11-21T07:38:24.440Z,59.73
2022-11-21T07:43:26.199Z,60.70
2022-11-21T07:48:29.466Z,59.38
2022-11-21T07:53:32.287Z,60.24
2022-11-21T07:58:34.108Z,59.25
2022-11-21T08:03:37.270Z,57.94
2022-11-21T08:08:39.143Z,58.17
2022-11-21T08:13:40.871Z,56.58
2022-11-21T08:18:44.003Z,55.01
2022-11-21T08:23:45.743Z,55.28
2022-11-21T08:28:47.698Z,54.43
2022-11-21T08:33:50.836Z,54.62
2022-11-21T08:38:52.544Z,52.65
2022-11-21T08:43:54.282Z,54.25
2022-11-21T08:48:57.382Z,54.55
2022-11-21T08:53:59.550Z,54.01
2022-11-21T08:59:01.262Z,53.10
2022-11-21T09:04:04.592Z,52.50
2022-11-21T09:09:06.529Z,50.97
2022-11-21T09:14:27.245Z,48.49
2022-11-21T09:19:30.855Z,46.53
2022-11-21T09:24:32.860Z,46.23
2022-11-21T09:29:34.579Z,45.49
2022-11-21T09:34:37.758Z,45.54
2022-11-21T09:39:39.513Z,47.43
2022-11-21T09:45:03.983Z,48.88
2022-11-21T09:50:19.475Z,49.55
2022-11-21T09:55:24.287Z,50.74
2022-11-21T10:00:26.151Z,52.05
2022-11-21T10:05:35.266Z,52.70
2022-11-21T10:10:46.622Z,52.47
2022-11-21T10:15:54.665Z,53.04
2022-11-21T10:21:00.531Z,53.35
2022-11-21T10:26:09.845Z,53.17
2022-11-21T10:31:12.081Z,52.57
2022-11-21T10:36:20.918Z,52.29
2022-11-21T10:41:37.003Z,52.87
2022-11-21T10:46:38.759Z,53.15
2022-11-21T10:51:44.158Z,53.05
2022-11-21T10:56:45.871Z,54.20
2022-11-21T11:01:54.716Z,54.81
2022-11-21T11:06:59.937Z,55.20
2022-11-21T11:12:42.584Z,55.09
2022-11-21T11:17:44.349Z,55.63
2022-11-21T11:22:48.125Z,55.39
2022-11-21T11:27:49.981Z,57.37
2022-11-21T11:32:51.721Z,57.17
2022-11-21T11:37:59.532Z,57.25
2022-11-21T11:43:39.216Z,57.63
2022-11-21T11:49:03.740Z,56.76
2022-11-21T11:54:07.821Z,56.04
2022-11-21T11:59:13.288Z,55.62
2022-11-21T12:04:16.305Z,55.13
2022-11-21T12:09:23.293Z,54.25
2022-11-21T12:14:55.324Z,54.49
2022-11-21T12:19:57.063Z,54.81
2022-11-21T12:25:00.446Z,54.27
2022-11-21T12:30:32.584Z,54.41
2022-11-21T12:35:50.612Z,54.24
2022-11-21T12:40:59.099Z,53.25
2022-11-21T12:46:03.026Z,52.30
2022-11-21T12:51:52.213Z,51.81
2022-11-21T12:56:57.953Z,51.32
2022-11-21T13:02:03.092Z,52.00
2022-11-21T13:07:07.072Z,51.77
2022-11-21T13:12:13.379Z,52.88
2022-11-21T13:17:26.283Z,54.08
2022-11-21T13:22:56.714Z,54.14
2022-11-21T13:28:22.772Z,54.68
2022-11-21T13:33:52.786Z,53.95
2022-11-21T13:39:33.345Z,54.54
2022-11-21T13:44:40.605Z,56.11
2022-11-21T13:49:46.985Z,55.51
2022-11-21T13:55:18.430Z,56.27
2022-11-21T14:00:32.762Z,55.91
2022-11-21T14:05:47.906Z,54.92
2022-11-21T14:10:50.618Z,52.90
2022-11-21T14:16:05.487Z,50.54
2022-11-21T14:21:09.084Z,49.55
2022-11-21T14:26:12.111Z,49.46
2022-11-21T14:31:15.315Z,52.42
2022-11-21T14:36:18.548Z,54.84
2022-11-21T14:41:25.829Z,55.67
2022-11-21T14:46:29.661Z,57.49
2022-11-21T14:51:31.401Z,57.81
2022-11-21T14:56:33.332Z,57.84
2022-11-21T15:01:36.749Z,59.79
2022-11-21T15:06:40.767Z,59.09
2022-11-21T15:11:43.986Z,58.97
2022-11-21T15:16:47.893Z,59.31
2022-11-21T15:21:50.239Z,58.84
2022-11-21T15:26:51.997Z,58.90
2022-11-21T15:32:08.051Z,59.72
2022-11-21T15:37:13.060Z,61.30
2022-11-21T15:42:27.994Z,64.13
2022-11-21T15:47:31.150Z,63.49
2022-11-21T15:52:36.877Z,60.77
2022-11-21T15:57:38.628Z,60.27
2022-11-21T16:02:41.776Z,58.29
2022-11-21T16:07:43.634Z,60.45
2022-11-21T16:12:45.457Z,60.44
2022-11-21T16:17:48.558Z,61.32
2022-11-21T16:22:50.360Z,60.43
2022-11-21T16:27:52.123Z,59.60
2022-11-21T16:32:56.231Z,57.93
2022-11-21T16:37:58.062Z,59.67
2022-11-21T16:43:07.643Z,61.34
2022-11-21T16:48:10.812Z,61.88
2022-11-21T16:53:12.974Z,61.48
2022-11-21T16:58:14.864Z,60.78
2022-11-21T17:03:18.034Z,61.56
2022-11-21T17:08:19.871Z,61.29
2022-11-21T17:13:21.649Z,60.67
2022-11-21T17:18:24.831Z,61.20
2022-11-21T17:23:26.684Z,60.73
2022-11-21T17:28:28.488Z,61.03
2022-11-21T17:33:31.703Z,60.54
2022-11-21T17:38:33.500Z,60.94
2022-11-21T17:43:35.299Z,60.89
2022-11-21T17:48:38.578Z,61.49
2022-11-21T17:53:41.818Z,62.52
2022-11-21T17:58:43.550Z,63.27
2022-11-21T18:03:47.107Z,62.88
2022-11-21T18:08:49.063Z,61.80
2022-11-21T18:13:50.824Z,61.79
2022-11-21T18:18:54.052Z,61.83
2022-11-21T18:23:57.323Z,62.15
2022-11-21T18:29:34.641Z,61.35
2022-11-21T18:34:23.206Z,63.26
2022-11-21T18:39:26.759Z,61.96
2022-11-21T18:47:20.514Z,61.43
2022-11-21T18:52:22.833Z,60.88
2022-11-21T18:57:24.750Z,60.88
2022-11-21T19:02:28.119Z,62.82
2022-11-21T19:07:29.973Z,63.80
2022-11-21T19:12:36.257Z,64.95
2022-11-21T19:17:42.394Z,63.07
2022-11-21T19:22:44.180Z,63.31
2022-11-21T19:27:45.954Z,63.01
2022-11-21T19:32:49.055Z,64.79
2022-11-21T19:37:50.891Z,65.81
2022-11-21T19:42:52.747Z,63.98
2022-11-21T19:47:58.281Z,63.33
2022-11-21T19:53:00.159Z,63.48
2022-11-21T19:58:01.941Z,63.11
2022-11-21T20:03:05.161Z,62.71
2022-11-21T20:08:16.398Z,64.09
2022-11-21T20:13:19.353Z,64.37
2022-11-21T20:18:22.772Z,64.57
2022-11-21T20:23:24.596Z,63.80
2022-11-21T20:28:26.623Z,63.30
2022-11-21T20:33:29.781Z,63.84
2022-11-21T20:38:31.983Z,62.82
2022-11-21T20:44:10.558Z,62.55
2022-11-21T20:48:57.909Z,62.24
2022-11-21T20:54:03.358Z,62.55
2022-11-21T20:59:05.818Z,63.31
2022-11-21T21:04:12.095Z,62.49
2022-11-21T21:09:14.200Z,62.42
2022-11-21T21:14:15.956Z,62.07
2022-11-21T21:19:19.236Z,62.79
2022-11-21T21:24:21.116Z,62.66
2022-11-21T21:29:23.169Z,63.86
2022-11-21T21:34:26.302Z,64.15
2022-11-21T21:39:28.199Z,64.75
2022-11-21T21:44:33.399Z,65.22
2022-11-21T21:49:37.124Z,64.66
2022-11-21T21:54:38.877Z,64.81
2022-11-21T21:59:40.835Z,66.39
2022-11-21T22:04:46.973Z,66.37
2022-11-21T22:09:52.391Z,65.08
2022-11-21T22:14:54.141Z,65.56
2022-11-21T22:19:57.275Z,68.25
2022-11-21T22:24:59.085Z,67.34
2022-11-21T22:30:00.870Z,67.01
2022-11-21T22:35:04.427Z,69.35
2022-11-21T22:40:07.020Z,70.05
2022-11-21T22:45:09.907Z,69.91
2022-11-21T22:50:13.377Z,68.28
2022-11-21T22:55:15.263Z,68.30
2022-11-21T23:00:18.148Z,68.67
2022-11-21T23:05:21.301Z,69.21
2022-11-21T23:10:23.085Z,67.18
2022-11-21T23:15:24.982Z,67.17
2022-11-21T23:20:28.154Z,68.72
2022-11-21T23:25:30.219Z,69.33
2022-11-21T23:30:32.053Z,67.49
2022-11-21T23:35:35.129Z,66.68
2022-11-21T23:40:36.978Z,66.35
2022-11-21T23:45:38.790Z,67.01
2022-11-21T23:50:41.935Z,67.48
2022-11-21T23:55:43.913Z,66.36
